Time;durP1;ratioP1;P1;durP2;ratioP2;P2;SDS_P1;SDS_P2;PMS_P1;PMS_P2;Temp;Humidity;BMP_temperature;BMP_pressure;BME280_temperature;BME280_humidity;BME280_pressure;Samples;Min_cycle;Max_cycle;Signal;HPM_P1;HPM_P2
2021/06/09 00:00:52;;;;;;;7.47;6.35;;;21.90;76.90;;;;;;2432178;53;21007;-67
2021/06/09 00:03:21;;;;;;;5.53;4.78;;;21.90;76.80;;;;;;2306105;54;21561;-67
2021/06/09 00:05:53;;;;;;;7.37;5.32;;;21.90;76.60;;;;;;2551279;53;20957;-67
2021/06/09 00:08:20;;;;;;;7.12;5.37;;;21.90;76.10;;;;;;2312621;54;21008;-67
2021/06/09 00:10:48;;;;;;;8.10;5.50;;;21.80;76.30;;;;;;2302467;54;21082;-70
2021/06/09 00:13:15;;;;;;;6.43;4.82;;;21.80;76.20;;;;;;2310152;54;20965;-69
2021/06/09 00:15:42;;;;;;;6.32;4.87;;;21.80;76.00;;;;;;2541756;53;21028;-67
2021/06/09 00:18:08;;;;;;;6.05;5.03;;;21.70;76.00;;;;;;2310727;54;20956;-67
2021/06/09 00:20:34;;;;;;;5.57;4.45;;;21.70;76.00;;;;;;2547840;53;20945;-67
2021/06/09 00:23:00;;;;;;;7.03;5.32;;;21.70;76.00;;;;;;2311092;54;20969;-69
2021/06/09 00:25:31;;;;;;;6.60;5.43;;;21.60;75.90;;;;;;2309488;54;20978;-70
2021/06/09 00:27:58;;;;;;;5.75;4.72;;;21.60;75.60;;;;;;2367159;54;20978;-69
2021/06/09 00:30:34;;;;;;;6.70;4.95;;;21.50;75.70;;;;;;2309298;54;20968;-66
2021/06/09 00:33:01;;;;;;;6.03;4.97;;;21.50;75.60;;;;;;2317499;54;21053;-66
2021/06/09 00:35:31;;;;;;;7.00;5.12;;;21.50;75.60;;;;;;2433377;53;21036;-67
2021/06/09 00:37:57;;;;;;;7.20;5.50;;;21.40;75.60;;;;;;2307496;54;20981;-67
2021/06/09 00:40:24;;;;;;;6.50;4.82;;;21.40;75.70;;;;;;2291544;54;21494;-70
2021/06/09 00:43:13;;;;;;;7.25;5.18;;;21.30;75.60;;;;;;2313303;54;20972;-67
2021/06/09 00:45:43;;;;;;;7.07;4.70;;;21.30;74.70;;;;;;2302589;54;21009;-66
2021/06/09 00:48:09;;;;;;;6.72;5.30;;;21.30;75.60;;;;;;2291609;54;20967;-67
2021/06/09 00:50:36;;;;;;;7.25;5.47;;;21.20;75.70;;;;;;2316601;54;21089;-67
2021/06/09 00:55:47;;;;;;;6.97;5.75;;;21.10;75.70;;;;;;2317575;54;20977;-68
2021/06/09 00:58:13;;;;;;;9.10;6.35;;;21.10;75.80;;;;;;2302448;54;20955;-72
2021/06/09 01:00:42;;;;;;;7.03;5.65;;;21.00;75.80;;;;;;2311865;54;20964;-68
2021/06/09 01:03:08;;;;;;;6.70;5.90;;;21.10;75.70;;;;;;2312037;54;21006;-66
2021/06/09 01:05:35;;;;;;;7.40;6.53;;;21.00;75.90;;;;;;2315337;54;21040;-66
2021/06/09 01:08:04;;;;;;;8.18;5.82;;;21.00;76.00;;;;;;2401519;54;21089;-67
2021/06/09 01:10:31;;;;;;;7.55;6.57;;;20.90;75.90;;;;;;2298437;54;20964;-69
2021/06/09 01:12:58;;;;;;;10.77;7.30;;;21.00;76.40;;;;;;2315687;54;20989;-67
2021/06/09 01:15:24;;;;;;;9.32;7.43;;;20.90;76.50;;;;;;2310608;54;20995;-67
2021/06/09 01:17:52;;;;;;;8.80;6.78;;;20.90;76.60;;;;;;2318443;54;20984;-67
2021/06/09 01:20:19;;;;;;;9.00;7.00;;;20.80;76.70;;;;;;2301635;54;21011;-67
2021/06/09 01:22:45;;;;;;;8.10;6.57;;;20.90;76.80;;;;;;2309289;54;21993;-70
2021/06/09 01:25:18;;;;;;;8.98;6.25;;;20.90;76.90;;;;;;2529290;53;21795;-66
2021/06/09 01:27:44;;;;;;;7.85;6.05;;;20.90;76.60;;;;;;2369087;53;20964;-69
2021/06/09 01:30:11;;;;;;;6.95;5.75;;;20.90;76.80;;;;;;2300750;54;20976;-69
2021/06/09 01:32:38;;;;;;;7.87;5.97;;;20.90;76.80;;;;;;2306719;54;20997;-67
2021/06/09 01:35:05;;;;;;;8.00;6.30;;;20.80;77.50;;;;;;2294746;53;21420;-67
2021/06/09 01:37:31;;;;;;;9.23;6.65;;;20.80;76.70;;;;;;2315939;53;20941;-68
2021/06/09 01:40:00;;;;;;;9.85;7.60;;;20.80;76.80;;;;;;2311487;54;20985;-67
2021/06/09 01:42:30;;;;;;;8.77;7.07;;;20.80;76.60;;;;;;2317742;54;21053;-67
2021/06/09 01:44:56;;;;;;;9.60;8.45;;;20.80;76.50;;;;;;2312449;54;20993;-67
2021/06/09 01:47:22;;;;;;;9.93;7.50;;;20.80;76.60;;;;;;2300635;54;21016;-68
2021/06/09 01:49:49;;;;;;;9.05;7.75;;;20.80;76.60;;;;;;2310676;54;21004;-67
2021/06/09 01:52:18;;;;;;;11.27;7.65;;;20.70;76.40;;;;;;2305212;54;20961;-67
2021/06/09 01:54:44;;;;;;;11.50;9.38;;;20.70;76.60;;;;;;2380777;54;20964;-66
2021/06/09 01:57:11;;;;;;;9.55;8.23;;;20.70;76.60;;;;;;2302968;54;20901;-67
2021/06/09 01:59:42;;;;;;;8.48;7.03;;;20.70;76.70;;;;;;2317509;54;21006;-67
2021/06/09 02:02:08;;;;;;;8.32;7.00;;;20.60;76.50;;;;;;2310159;54;20988;-66
2021/06/09 02:04:34;;;;;;;11.38;8.05;;;20.60;76.70;;;;;;2305378;54;20953;-66
2021/06/09 02:07:00;;;;;;;7.68;6.18;;;20.60;76.70;;;;;;2316736;53;21056;-66
2021/06/09 02:09:27;;;;;;;7.90;6.62;;;20.60;76.70;;;;;;2299837;54;21421;-68
2021/06/09 02:11:53;;;;;;;7.10;6.15;;;20.60;76.80;;;;;;2309068;54;20965;-66
2021/06/09 02:14:19;;;;;;;9.30;6.90;;;20.60;76.90;;;;;;2429834;53;20972;-68
2021/06/09 02:16:46;;;;;;;7.32;5.90;;;20.60;76.80;;;;;;2300309;53;21323;-69
2021/06/09 02:19:13;;;;;;;8.07;6.20;;;20.60;76.70;;;;;;2308823;54;21073;-67
2021/06/09 02:21:40;;;;;;;8.85;6.47;;;20.60;76.60;;;;;;2314636;54;20997;-67
2021/06/09 02:24:08;;;;;;;10.68;6.45;;;20.60;76.60;;;;;;2311947;54;20971;-67
2021/06/09 02:26:38;;;;;;;7.90;6.50;;;20.50;76.60;;;;;;2313702;54;20976;-67
2021/06/09 02:29:08;;;;;;;8.23;6.50;;;20.50;76.50;;;;;;2332589;53;21580;-67
2021/06/09 02:31:38;;;;;;;7.80;6.78;;;20.50;76.70;;;;;;2314146;54;21000;-66
2021/06/09 02:34:10;;;;;;;8.88;6.47;;;20.50;76.50;;;;;;2546603;53;20956;-66
2021/06/09 02:36:55;;;;;;;7.47;6.12;;;20.40;76.70;;;;;;2300971;54;20985;-68
2021/06/09 02:39:22;;;;;;;8.50;6.62;;;20.50;76.10;;;;;;2538235;53;21009;-67
2021/06/09 02:41:48;;;;;;;7.57;6.28;;;20.40;76.80;;;;;;2313211;53;21761;-67
2021/06/09 02:44:15;;;;;;;7.97;6.57;;;20.40;77.00;;;;;;2316294;54;20976;-67
2021/06/09 02:46:57;;;;;;;7.93;6.37;;;20.40;77.00;;;;;;2316015;54;20973;-66
2021/06/09 02:49:28;;;;;;;7.25;5.72;;;20.40;76.50;;;;;;2303331;54;21477;-66
2021/06/09 02:52:25;;;;;;;7.03;6.05;;;20.40;76.90;;;;;;2320161;54;22064;-70
2021/06/09 02:55:15;;;;;;;7.20;6.00;;;20.40;76.40;;;;;;2305397;54;21039;-66
2021/06/09 02:59:19;;;;;;;10.73;7.22;;;20.40;76.90;;;;;;2286569;54;20999;-67
2021/06/09 03:01:53;;;;;;;7.90;6.47;;;20.40;77.00;;;;;;2310884;54;21047;-69
2021/06/09 03:04:21;;;;;;;10.00;6.68;;;20.40;77.00;;;;;;2306301;54;21023;-67
2021/06/09 03:07:27;;;;;;;9.13;6.95;;;20.40;77.20;;;;;;2316457;54;21000;-66
2021/06/09 03:10:05;;;;;;;8.77;6.95;;;20.40;76.50;;;;;;2310293;54;21101;-70
2021/06/09 03:12:45;;;;;;;7.82;6.70;;;20.40;76.90;;;;;;2316613;54;20993;-66
2021/06/09 03:15:14;;;;;;;9.68;7.55;;;20.40;77.20;;;;;;2312137;54;21812;-67
2021/06/09 03:18:17;;;;;;;8.13;7.03;;;20.40;77.30;;;;;;2301382;54;21362;-69
2021/06/09 03:20:57;;;;;;;7.00;5.90;;;20.40;76.50;;;;;;2520364;53;21589;-68
2021/06/09 03:30:20;;;;;;;7.35;6.20;;;20.30;76.70;;;;;;2318212;54;20980;-67
2021/06/09 03:33:06;;;;;;;5.28;4.32;;;20.30;76.60;;;;;;2289899;54;20935;-68
2021/06/09 03:35:41;;;;;;;9.50;5.72;;;20.40;76.00;;;;;;2316513;54;21397;-66
2021/06/09 03:38:10;;;;;;;8.50;5.75;;;20.30;76.60;;;;;;2302109;54;21071;-71
2021/06/09 03:40:37;;;;;;;7.62;6.00;;;20.30;76.80;;;;;;2312806;54;20951;-68
2021/06/09 03:43:05;;;;;;;6.05;5.20;;;20.20;76.80;;;;;;2313348;54;20965;-67
2021/06/09 03:45:33;;;;;;;7.35;6.07;;;20.20;76.80;;;;;;2310308;54;21043;-69
2021/06/09 03:48:05;;;;;;;6.40;5.25;;;20.20;76.80;;;;;;2314810;54;20953;-67
2021/06/09 03:50:34;;;;;;;6.25;5.03;;;20.20;76.80;;;;;;2311033;54;21015;-66
2021/06/09 03:53:03;;;;;;;6.78;5.03;;;20.10;76.70;;;;;;2321376;54;21629;-67
2021/06/09 03:55:34;;;;;;;8.25;5.70;;;20.20;76.80;;;;;;2425414;53;20977;-66
2021/06/09 03:58:00;;;;;;;6.95;5.40;;;20.10;76.50;;;;;;2307454;53;21443;-67
2021/06/09 04:00:29;;;;;;;7.05;5.57;;;20.10;76.40;;;;;;2347992;53;21024;-69
2021/06/09 04:03:02;;;;;;;8.15;5.70;;;20.10;76.30;;;;;;2304118;54;20977;-68
2021/06/09 04:08:56;;;;;;;6.93;5.70;;;20.00;75.70;;;;;;2549410;53;21765;-68
2021/06/09 04:11:25;;;;;;;7.60;5.75;;;20.00;76.50;;;;;;2519004;53;21494;-67
2021/06/09 04:13:51;;;;;;;7.50;6.30;;;20.00;76.40;;;;;;2316514;54;21612;-67
2021/06/09 04:16:17;;;;;;;8.07;6.15;;;19.90;76.40;;;;;;2466420;53;21486;-67
2021/06/09 04:18:48;;;;;;;8.23;5.85;;;19.90;76.50;;;;;;2338259;53;21544;-67
2021/06/09 04:21:15;;;;;;;7.68;5.62;;;19.90;76.60;;;;;;2313688;54;21009;-68
2021/06/09 04:23:41;;;;;;;7.10;5.60;;;19.90;76.80;;;;;;2284993;54;21053;-71
2021/06/09 04:26:11;;;;;;;7.15;5.43;;;19.80;76.90;;;;;;2534347;53;20937;-66
2021/06/09 04:28:39;;;;;;;9.75;5.72;;;19.90;77.10;;;;;;2302832;54;21737;-67
2021/06/09 04:31:06;;;;;;;8.23;6.43;;;19.90;77.90;;;;;;2313556;54;20961;-67
2021/06/09 04:33:32;;;;;;;7.28;5.78;;;19.90;77.30;;;;;;2313102;54;20967;-67
2021/06/09 04:35:59;;;;;;;7.57;5.62;;;19.90;77.40;;;;;;2314923;54;21278;-66
2021/06/09 04:38:25;;;;;;;7.22;6.10;;;19.90;77.50;;;;;;2314034;54;20935;-66
2021/06/09 04:40:52;;;;;;;7.50;6.35;;;19.90;77.50;;;;;;2314633;55;21359;-67
2021/06/09 04:43:21;;;;;;;7.18;6.35;;;19.90;77.60;;;;;;2315657;54;21020;-67
2021/06/09 04:45:47;;;;;;;7.60;6.50;;;19.90;77.60;;;;;;2483047;53;20973;-67
2021/06/09 04:48:16;;;;;;;7.80;5.87;;;19.90;77.80;;;;;;2313239;54;20985;-68
2021/06/09 04:50:44;;;;;;;9.25;7.22;;;19.90;77.70;;;;;;2312767;54;21310;-68
2021/06/09 04:53:10;;;;;;;9.18;7.82;;;19.90;78.00;;;;;;2319840;54;20981;-67
2021/06/09 04:56:10;;;;;;;9.10;7.18;;;19.90;78.20;;;;;;2299116;54;21000;-66
2021/06/09 04:58:37;;;;;;;11.15;7.82;;;20.00;78.00;;;;;;2314572;54;21021;-67
2021/06/09 05:01:03;;;;;;;9.52;7.72;;;20.00;78.90;;;;;;2305133;54;20993;-67
2021/06/09 05:03:29;;;;;;;10.70;8.15;;;20.10;79.30;;;;;;2315230;54;21020;-67
2021/06/09 05:05:55;;;;;;;10.32;8.63;;;20.10;79.50;;;;;;2318716;54;21441;-70
2021/06/09 05:08:21;;;;;;;11.02;8.35;;;20.20;79.70;;;;;;2309637;53;20992;-69
2021/06/09 05:10:49;;;;;;;15.10;9.63;;;20.20;79.80;;;;;;2314301;54;20981;-70
2021/06/09 05:13:23;;;;;;;10.25;8.55;;;20.30;80.00;;;;;;2304768;54;20993;-67
2021/06/09 05:15:59;;;;;;;11.10;7.78;;;20.30;79.90;;;;;;2313776;54;21385;-67
2021/06/09 05:18:27;;;;;;;10.98;8.07;;;20.40;79.90;;;;;;2292790;54;21604;-69
2021/06/09 05:20:56;;;;;;;11.20;9.02;;;20.40;79.90;;;;;;2302063;54;21857;-66
2021/06/09 05:23:29;;;;;;;10.70;9.05;;;20.50;80.00;;;;;;2312561;54;21959;-67
2021/06/09 05:25:56;;;;;;;10.15;8.82;;;20.50;79.50;;;;;;2312368;54;21033;-67
2021/06/09 05:28:23;;;;;;;10.15;8.70;;;20.60;79.80;;;;;;2547123;54;21032;-67
2021/06/09 05:30:49;;;;;;;10.70;9.05;;;20.60;79.80;;;;;;2316958;54;21009;-67
2021/06/09 05:33:16;;;;;;;10.50;9.40;;;20.70;79.90;;;;;;2316523;54;20969;-67
2021/06/09 05:35:42;;;;;;;12.20;10.20;;;20.70;80.00;;;;;;2314310;54;20968;-70
2021/06/09 05:38:08;;;;;;;12.23;10.45;;;20.80;80.10;;;;;;2425382;53;20964;-68
2021/06/09 05:40:35;;;;;;;13.62;10.35;;;20.80;80.10;;;;;;2313903;54;21072;-67
2021/06/09 05:43:01;;;;;;;10.85;9.38;;;20.90;80.10;;;;;;2315980;54;21007;-71
2021/06/09 05:45:30;;;;;;;13.20;9.73;;;21.00;80.30;;;;;;2295556;54;20974;-67
2021/06/09 05:47:56;;;;;;;11.75;10.23;;;21.00;80.30;;;;;;2309922;54;21544;-67
2021/06/09 05:50:25;;;;;;;12.27;10.23;;;21.10;80.50;;;;;;2309580;54;20960;-67
2021/06/09 05:52:53;;;;;;;11.05;9.85;;;21.20;80.60;;;;;;2545953;53;21003;-67
2021/06/09 05:55:21;;;;;;;12.98;10.07;;;21.30;80.70;;;;;;2317197;54;20993;-68
2021/06/09 05:57:48;;;;;;;13.50;10.05;;;21.30;80.60;;;;;;2322372;54;21006;-67
2021/06/09 06:00:15;;;;;;;15.95;10.23;;;21.40;80.60;;;;;;2317058;54;21841;-67
2021/06/09 06:02:42;;;;;;;10.93;9.18;;;21.50;80.50;;;;;;2313165;54;22050;-68
2021/06/09 06:05:09;;;;;;;12.48;10.05;;;21.50;80.50;;;;;;2324375;54;21039;-68
2021/06/09 06:07:37;;;;;;;12.82;10.35;;;21.60;80.50;;;;;;2314689;53;21020;-67
2021/06/09 06:10:05;;;;;;;12.93;10.45;;;21.70;80.50;;;;;;2319838;53;20985;-67
2021/06/09 06:12:31;;;;;;;11.98;10.52;;;21.70;80.30;;;;;;2302694;53;20988;-67
2021/06/09 06:14:58;;;;;;;11.95;10.00;;;21.80;80.30;;;;;;2317434;54;21004;-71
2021/06/09 06:17:24;;;;;;;10.85;9.32;;;21.80;80.00;;;;;;2314281;54;21061;-67
2021/06/09 06:19:50;;;;;;;12.55;9.90;;;21.90;80.10;;;;;;2314814;54;21083;-69
2021/06/09 06:22:17;;;;;;;10.65;9.35;;;21.90;79.90;;;;;;2319287;54;21859;-67
2021/06/09 06:24:46;;;;;;;11.23;9.50;;;22.00;79.70;;;;;;2315862;54;21577;-68
2021/06/09 06:27:13;;;;;;;10.05;8.93;;;22.00;79.50;;;;;;2315573;54;21021;-67
2021/06/09 06:29:39;;;;;;;11.10;8.82;;;22.00;79.50;;;;;;2295022;54;20951;-67
2021/06/09 06:32:06;;;;;;;10.90;9.55;;;22.10;79.50;;;;;;2545782;53;21485;-70
2021/06/09 06:34:39;;;;;;;11.60;9.30;;;22.10;79.30;;;;;;2417833;54;20942;-67
2021/06/09 06:37:06;;;;;;;10.13;8.60;;;22.10;78.80;;;;;;2354762;53;20948;-67
2021/06/09 06:39:35;;;;;;;10.77;8.73;;;22.20;79.30;;;;;;2319300;54;20963;-72
2021/06/09 06:42:02;;;;;;;11.85;9.10;;;22.20;79.30;;;;;;2315077;54;20985;-68
2021/06/09 06:44:28;;;;;;;11.12;9.45;;;22.20;79.20;;;;;;2305591;54;20972;-67
2021/06/09 06:46:55;;;;;;;13.40;10.25;;;22.30;79.30;;;;;;2351646;53;20964;-68
2021/06/09 06:49:21;;;;;;;10.77;9.23;;;22.30;79.10;;;;;;2316462;54;21061;-68
2021/06/09 06:51:50;;;;;;;12.57;9.60;;;22.30;79.20;;;;;;2459571;53;20969;-67
2021/06/09 06:54:17;;;;;;;10.48;9.02;;;22.40;78.90;;;;;;2317128;54;20974;-67
2021/06/09 06:56:47;;;;;;;11.65;9.48;;;22.40;79.30;;;;;;2314747;54;20965;-67
2021/06/09 06:59:14;;;;;;;10.55;9.25;;;22.40;79.40;;;;;;2547325;53;20953;-67
2021/06/09 07:01:40;;;;;;;13.07;10.15;;;22.50;79.50;;;;;;2393825;53;20953;-67
2021/06/09 07:04:06;;;;;;;13.68;11.40;;;22.50;79.60;;;;;;2305709;54;20977;-68
2021/06/09 07:06:33;;;;;;;12.27;10.52;;;22.60;79.80;;;;;;2315049;54;20998;-67
2021/06/09 07:09:04;;;;;;;12.57;9.80;;;22.60;79.80;;;;;;2318558;54;21750;-67
2021/06/09 07:11:33;;;;;;;16.20;12.73;;;22.70;80.10;;;;;;2285286;54;1814274;-69
2021/06/09 07:14:00;;;;;;;19.50;15.05;;;22.80;80.30;;;;;;2315079;54;21077;-67
2021/06/09 07:16:30;;;;;;;20.50;14.60;;;22.80;79.80;;;;;;2287600;54;21041;-67
2021/06/09 07:18:57;;;;;;;14.68;12.02;;;22.90;79.50;;;;;;2315295;54;21033;-67
2021/06/09 07:21:23;;;;;;;18.27;13.02;;;23.00;80.30;;;;;;2428458;53;20993;-69
2021/06/09 07:23:49;;;;;;;16.95;12.60;;;23.10;80.70;;;;;;2322036;53;21767;-71
2021/06/09 07:26:15;;;;;;;14.95;12.15;;;23.10;80.80;;;;;;2545678;54;21089;-67
2021/06/09 07:28:49;;;;;;;16.33;12.68;;;23.20;80.90;;;;;;2313251;54;21304;-68
2021/06/09 07:31:20;;;;;;;18.27;13.55;;;23.40;80.80;;;;;;2549226;53;20990;-67
2021/06/09 07:33:46;;;;;;;16.50;12.85;;;23.50;81.10;;;;;;2314075;54;20985;-70
2021/06/09 07:36:13;;;;;;;16.45;13.25;;;23.60;81.10;;;;;;2316294;54;21000;-68
2021/06/09 07:38:42;;;;;;;18.55;13.60;;;23.70;81.10;;;;;;2538524;53;21784;-68
2021/06/09 07:41:09;;;;;;;17.75;13.25;;;23.80;80.90;;;;;;2293272;55;20957;-67
2021/06/09 07:43:38;;;;;;;16.00;12.45;;;23.80;81.00;;;;;;2301699;54;20955;-67
2021/06/09 07:46:09;;;;;;;17.60;12.93;;;23.90;80.70;;;;;;2462599;53;21764;-67
2021/06/09 07:48:35;;;;;;;18.58;14.32;;;24.00;80.50;;;;;;2316089;54;21009;-68
2021/06/09 07:51:05;;;;;;;16.52;13.13;;;24.00;80.60;;;;;;2316869;54;21057;-67
2021/06/09 07:53:31;;;;;;;16.05;13.27;;;24.10;80.60;;;;;;2318948;54;21097;-68
2021/06/09 07:55:57;;;;;;;16.67;13.62;;;24.20;80.80;;;;;;2315026;54;20949;-67
2021/06/09 07:58:27;;;;;;;17.45;13.90;;;24.20;80.70;;;;;;2321310;54;21267;-68
2021/06/09 08:00:55;;;;;;;16.87;13.38;;;24.30;80.80;;;;;;2313628;54;21799;-67
2021/06/09 08:03:25;;;;;;;17.42;13.90;;;24.40;80.70;;;;;;2536593;53;21513;-67
2021/06/09 08:05:56;;;;;;;17.52;13.95;;;24.40;80.10;;;;;;2523769;53;21058;-67
2021/06/09 08:08:23;;;;;;;17.35;14.43;;;24.50;80.50;;;;;;2538172;53;20976;-69
2021/06/09 08:10:51;;;;;;;17.58;14.48;;;24.50;80.40;;;;;;2317864;54;20961;-71
2021/06/09 08:13:20;;;;;;;16.62;12.75;;;24.60;80.10;;;;;;2315927;54;21017;-67
2021/06/09 08:15:47;;;;;;;17.25;13.82;;;24.60;79.50;;;;;;2549856;53;20969;-72
2021/06/09 08:18:22;;;;;;;22.37;13.50;;;24.60;79.90;;;;;;2313986;54;20937;-67
2021/06/09 08:21:12;;;;;;;16.42;13.15;;;24.70;78.80;;;;;;2317493;54;21072;-67
2021/06/09 08:23:40;;;;;;;16.05;13.10;;;24.70;78.30;;;;;;2547084;53;21027;-67
2021/06/09 08:26:07;;;;;;;15.30;12.90;;;24.70;80.00;;;;;;2316883;54;21022;-68
2021/06/09 08:28:36;;;;;;;14.13;12.40;;;24.80;80.20;;;;;;2315675;54;21021;-72
2021/06/09 08:31:05;;;;;;;15.18;13.02;;;24.80;80.20;;;;;;2297068;54;20973;-68
2021/06/09 08:33:32;;;;;;;16.95;13.55;;;24.90;79.70;;;;;;2317729;54;21775;-67
2021/06/09 08:35:58;;;;;;;16.52;12.70;;;24.90;80.20;;;;;;2546684;53;21564;-69
2021/06/09 08:38:25;;;;;;;15.00;12.10;;;24.90;80.30;;;;;;2288989;54;21109;-68
2021/06/09 08:40:51;;;;;;;14.90;11.85;;;25.00;80.60;;;;;;2304094;54;20989;-67
2021/06/09 08:43:18;;;;;;;17.33;13.32;;;25.00;80.70;;;;;;2315921;54;20949;-68
2021/06/09 08:45:47;;;;;;;14.95;11.80;;;25.10;80.60;;;;;;2318055;54;21029;-71
2021/06/09 08:48:14;;;;;;;15.63;13.15;;;25.20;80.40;;;;;;2301356;54;21374;-71
2021/06/09 08:50:41;;;;;;;17.12;13.65;;;25.20;80.30;;;;;;2316286;54;21009;-68
2021/06/09 08:53:07;;;;;;;13.32;11.48;;;25.20;80.10;;;;;;2299170;54;21421;-68
2021/06/09 08:55:34;;;;;;;14.40;11.60;;;25.30;80.00;;;;;;2302854;54;20965;-68
2021/06/09 08:58:03;;;;;;;12.07;10.57;;;25.30;79.90;;;;;;2319584;54;20981;-68
2021/06/09 09:00:31;;;;;;;13.50;11.40;;;25.40;79.50;;;;;;2318994;54;21462;-70
2021/06/09 09:02:59;;;;;;;13.85;11.32;;;25.40;80.00;;;;;;2314862;54;21032;-71
2021/06/09 09:05:27;;;;;;;13.52;11.48;;;25.50;80.20;;;;;;2546718;53;20976;-68
2021/06/09 09:07:56;;;;;;;14.27;11.38;;;25.50;80.70;;;;;;2320765;54;20936;-67
2021/06/09 09:10:24;;;;;;;12.73;10.48;;;25.60;80.10;;;;;;2343045;54;21469;-68
2021/06/09 09:12:50;;;;;;;16.15;11.95;;;25.60;79.80;;;;;;2546569;53;20941;-67
2021/06/09 09:15:16;;;;;;;14.63;11.73;;;25.70;80.00;;;;;;2317265;53;20956;-68
2021/06/09 09:18:31;;;;;;;13.77;10.52;;;25.70;79.60;;;;;;2316281;54;21830;-68
2021/06/09 09:20:57;;;;;;;10.43;9.30;;;25.70;78.30;;;;;;2319938;54;21056;-71
2021/06/09 09:23:30;;;;;;;10.98;9.50;;;25.80;79.80;;;;;;2322876;54;21986;-68
2021/06/09 09:25:59;;;;;;;12.85;10.55;;;25.80;79.10;;;;;;2314359;54;21013;-68
2021/06/09 09:28:33;;;;;;;13.70;11.40;;;25.90;80.60;;;;;;2316668;54;20989;-67
2021/06/09 09:32:03;;;;;;;13.93;11.48;;;25.90;78.80;;;;;;2287416;54;20988;-70
2021/06/09 09:34:40;;;;;;;11.68;9.82;;;26.00;77.60;;;;;;2321424;54;21037;-71
2021/06/09 09:37:25;;;;;;;12.18;10.57;;;26.00;78.60;;;;;;2547503;53;21020;-68
2021/06/09 09:39:52;;;;;;;13.48;11.15;;;26.10;78.30;;;;;;2316600;54;20977;-67
2021/06/09 09:42:34;;;;;;;13.10;11.05;;;26.10;80.10;;;;;;2318648;54;21012;-70
2021/06/09 09:45:26;;;;;;;12.02;10.65;;;26.20;78.90;;;;;;2316777;54;21088;-68
2021/06/09 09:48:09;;;;;;;11.47;10.30;;;26.30;78.10;;;;;;2322794;54;20973;-68
2021/06/09 09:50:41;;;;;;;;;;;26.30;77.90;;;;;;2308974;54;21894;-68
2021/06/09 09:53:23;;;;;;;9.05;7.43;;;26.40;77.80;;;;;;2320787;54;20497;-71
2021/06/09 09:56:12;;;;;;;10.17;8.87;;;26.50;80.50;;;;;;2317140;54;20993;-68
2021/06/09 09:58:39;;;;;;;10.10;8.45;;;26.50;78.60;;;;;;2311500;54;21099;-68
2021/06/09 10:01:24;;;;;;;11.40;9.32;;;26.60;80.30;;;;;;2315768;54;20933;-68
2021/06/09 10:03:55;;;;;;;10.48;9.38;;;26.70;78.80;;;;;;2316624;54;21487;-72
2021/06/09 10:06:34;;;;;;;11.00;9.60;;;26.70;80.00;;;;;;2317661;54;20965;-68
2021/06/09 10:09:11;;;;;;;11.02;9.70;;;26.80;78.60;;;;;;2400007;53;21021;-69
2021/06/09 10:11:40;;;;;;;10.20;9.15;;;26.80;78.70;;;;;;2316978;53;21118;-68
2021/06/09 10:15:06;;;;;;;9.82;8.80;;;26.80;79.20;;;;;;2306297;54;20996;-68
2021/06/09 10:17:34;;;;;;;9.68;8.60;;;26.90;76.80;;;;;;2321389;54;20981;-68
2021/06/09 10:20:01;;;;;;;10.45;9.35;;;27.00;79.70;;;;;;2308784;53;21360;-68
2021/06/09 10:22:36;;;;;;;11.55;10.27;;;27.00;79.60;;;;;;2323960;54;21113;-73
2021/06/09 10:25:07;;;;;;;11.30;10.10;;;27.10;79.30;;;;;;2296399;54;21505;-70
2021/06/09 10:27:55;;;;;;;10.55;9.43;;;27.10;78.00;;;;;;2318697;54;21730;-68
2021/06/09 10:30:28;;;;;;;10.80;9.43;;;27.10;78.60;;;;;;2310164;54;21035;-70
2021/06/09 10:32:57;;;;;;;10.60;9.50;;;27.10;78.50;;;;;;2315403;54;20977;-68
2021/06/09 10:35:25;;;;;;;10.60;8.90;;;27.20;79.20;;;;;;2309202;54;20992;-68
2021/06/09 10:37:53;;;;;;;11.07;9.02;;;27.20;79.40;;;;;;2314769;54;21420;-67
2021/06/09 10:40:20;;;;;;;11.75;10.35;;;27.20;79.50;;;;;;2289218;54;20969;-70
2021/06/09 10:42:49;;;;;;;10.68;9.63;;;27.30;79.40;;;;;;2312776;54;21013;-68
2021/06/09 10:45:16;;;;;;;10.50;9.43;;;27.30;78.80;;;;;;2309494;53;20948;-68
2021/06/09 10:47:43;;;;;;;10.40;9.35;;;27.30;79.10;;;;;;2551268;53;20953;-68
2021/06/09 10:50:10;;;;;;;11.25;10.05;;;27.40;79.00;;;;;;2315850;54;20997;-69
2021/06/09 10:52:37;;;;;;;10.68;9.60;;;27.40;79.20;;;;;;2315597;54;20959;-72
2021/06/09 10:55:04;;;;;;;9.07;8.18;;;27.50;79.30;;;;;;2523732;53;21198;-70
2021/06/09 10:57:31;;;;;;;9.63;8.43;;;27.60;79.20;;;;;;2314327;54;20985;-71
2021/06/09 11:00:00;;;;;;;8.07;7.20;;;27.60;79.20;;;;;;2304276;54;20958;-68
2021/06/09 11:02:26;;;;;;;7.78;6.97;;;27.70;78.60;;;;;;2521971;54;21049;-72
2021/06/09 11:04:57;;;;;;;8.20;7.40;;;27.70;79.40;;;;;;2315145;54;21600;-68
2021/06/09 11:07:38;;;;;;;8.53;7.63;;;27.80;78.40;;;;;;2317108;54;20937;-68
2021/06/09 11:10:15;;;;;;;8.48;7.50;;;27.80;77.50;;;;;;2315969;54;20973;-68
2021/06/09 11:12:45;;;;;;;8.25;7.45;;;27.90;77.70;;;;;;2316495;54;20945;-68
2021/06/09 11:15:16;;;;;;;9.00;7.43;;;28.00;78.80;;;;;;2318462;53;21037;-70
2021/06/09 11:18:13;;;;;;;8.90;7.75;;;28.00;77.60;;;;;;2315493;54;21900;-69
2021/06/09 11:20:40;;;;;;;7.68;6.87;;;28.10;75.90;;;;;;2321923;54;20985;-70
2021/06/09 11:23:11;;;;;;;8.65;7.32;;;28.10;78.50;;;;;;2313849;54;21945;-71
2021/06/09 11:25:47;;;;;;;8.50;7.62;;;28.10;77.70;;;;;;2308451;54;21692;-70
2021/06/09 11:28:47;;;;;;;8.32;7.43;;;28.20;78.60;;;;;;2317697;54;20968;-70
2021/06/09 11:31:24;;;;;;;8.00;7.20;;;28.20;78.40;;;;;;2318761;54;21041;-68
2021/06/09 11:34:02;;;;;;;8.82;7.30;;;28.30;76.70;;;;;;2304289;54;21028;-67
2021/06/09 11:36:38;;;;;;;8.30;7.50;;;28.30;77.30;;;;;;2314702;54;21136;-67
2021/06/09 11:39:23;;;;;;;8.05;7.18;;;28.40;76.40;;;;;;2318046;54;20984;-67
2021/06/09 11:41:50;;;;;;;8.48;7.68;;;28.40;77.10;;;;;;2296513;54;21770;-68
2021/06/09 11:44:37;;;;;;;7.87;7.03;;;28.50;78.10;;;;;;2315536;54;21778;-68
2021/06/09 11:47:23;;;;;;;8.13;6.93;;;28.50;76.10;;;;;;2304442;54;21470;-71
2021/06/09 11:49:51;;;;;;;7.47;6.62;;;28.50;74.40;;;;;;2488671;53;20960;-66
2021/06/09 11:52:17;;;;;;;8.82;6.40;;;28.50;77.30;;;;;;2521658;54;21029;-67
2021/06/09 11:54:43;;;;;;;6.75;6.05;;;28.60;77.70;;;;;;2317453;54;20953;-68
2021/06/09 11:57:21;;;;;;;7.18;6.47;;;28.60;77.50;;;;;;2536932;53;20981;-66
2021/06/09 11:59:50;;;;;;;6.93;6.00;;;28.60;75.20;;;;;;2314798;54;21053;-67
2021/06/09 12:02:23;;;;;;;7.35;6.40;;;28.70;77.70;;;;;;2321675;54;20988;-70
2021/06/09 12:04:50;;;;;;;7.30;6.60;;;28.70;76.80;;;;;;2312393;54;21580;-67
2021/06/09 12:07:26;;;;;;;7.55;6.47;;;28.80;77.70;;;;;;2318690;54;20978;-67
2021/06/09 12:09:57;;;;;;;7.65;6.35;;;28.80;75.60;;;;;;2314629;54;21076;-67
2021/06/09 12:12:27;;;;;;;7.85;7.05;;;28.80;76.70;;;;;;2550096;53;21012;-71
2021/06/09 12:14:55;;;;;;;7.72;6.75;;;28.90;76.70;;;;;;2298480;54;21027;-69
2021/06/09 12:17:38;;;;;;;7.87;7.07;;;28.90;76.80;;;;;;2333416;54;20996;-67
2021/06/09 12:20:12;;;;;;;8.32;7.22;;;28.90;74.80;;;;;;2329757;53;20974;-67
2021/06/09 12:22:52;;;;;;;7.53;6.72;;;29.00;76.50;;;;;;2314189;54;21080;-70
2021/06/09 12:25:29;;;;;;;6.93;6.22;;;29.00;74.70;;;;;;2318843;54;21016;-67
2021/06/09 12:28:06;;;;;;;6.93;6.22;;;29.00;74.30;;;;;;2316733;54;21016;-67
2021/06/09 12:30:35;;;;;;;6.12;5.53;;;29.00;74.50;;;;;;2525844;53;21769;-67
2021/06/09 12:33:01;;;;;;;6.75;6.05;;;29.10;76.20;;;;;;2311243;54;21381;-67
2021/06/09 12:35:31;;;;;;;6.28;5.55;;;29.10;76.40;;;;;;2315156;54;21076;-68
2021/06/09 12:37:59;;;;;;;7.72;6.93;;;29.10;76.80;;;;;;2318506;54;21075;-71
2021/06/09 12:40:26;;;;;;;7.57;6.78;;;29.20;76.50;;;;;;2318053;54;21057;-67
2021/06/09 12:42:58;;;;;;;7.70;6.90;;;29.20;76.50;;;;;;2351504;54;20997;-67
2021/06/09 12:45:26;;;;;;;6.72;6.03;;;29.20;75.60;;;;;;2298323;54;21103;-67
2021/06/09 12:47:52;;;;;;;7.00;6.30;;;29.30;76.50;;;;;;2314620;54;21597;-70
2021/06/09 12:50:25;;;;;;;6.78;6.07;;;29.30;76.20;;;;;;2313931;54;20932;-67
2021/06/09 12:52:53;;;;;;;6.68;5.93;;;29.30;75.10;;;;;;2319537;54;21085;-67
2021/06/09 12:55:28;;;;;;;7.18;6.47;;;29.30;75.90;;;;;;2294105;55;20980;-69
2021/06/09 12:57:56;;;;;;;6.43;5.72;;;29.40;74.70;;;;;;2322237;54;21033;-67
2021/06/09 13:00:33;;;;;;;7.70;5.90;;;29.40;76.10;;;;;;2534536;53;21336;-67
2021/06/09 13:03:32;;;;;;;6.10;5.50;;;29.50;75.00;;;;;;2317757;54;20972;-69
2021/06/09 13:06:15;;;;;;;6.35;5.50;;;29.50;74.20;;;;;;2317359;54;21017;-67
2021/06/09 13:08:56;;;;;;;6.15;5.55;;;29.60;75.50;;;;;;2317308;54;21004;-67
2021/06/09 13:11:32;;;;;;;7.93;6.00;;;29.60;75.00;;;;;;2319091;54;20953;-67
2021/06/09 13:14:02;;;;;;;7.82;6.07;;;29.70;74.00;;;;;;2393957;54;20993;-67